createdAt,value
2022-08-05T00:00:16.451Z,99665.87
2022-08-05T00:01:20.309Z,99665.63
2022-08-05T00:02:11.294Z,99663.16
2022-08-05T00:02:58.493Z,99663.38
2022-08-05T00:03:45.284Z,99661.72
2022-08-05T00:04:33.051Z,99663.16
2022-08-05T00:06:02.912Z,99657.69
2022-08-05T00:06:32.836Z,99657.91
2022-08-05T00:07:26.901Z,99655.78
2022-08-05T00:08:34.624Z,99659.31
2022-08-05T00:09:22.113Z,99657.81
2022-08-05T00:10:09.252Z,99655.91
2022-08-05T00:10:56.719Z,99663.28
2022-08-05T00:11:55.706Z,99661.84
2022-08-05T00:12:48.510Z,99658.03
2022-08-05T00:13:44.229Z,99651.63
2022-08-05T00:14:39.832Z,99659.22
2022-08-05T00:15:57.525Z,99656.16
2022-08-05T00:16:36.354Z,99655.56
2022-08-05T00:17:39.019Z,99655.31
2022-08-05T00:18:28.978Z,99653.91
2022-08-05T00:19:15.761Z,99657.72
2022-08-05T00:20:03.250Z,99657.13
2022-08-05T00:20:52.850Z,99653.28
2022-08-05T00:21:39.710Z,99652.69
2022-08-05T00:22:29.580Z,99652.97
2022-08-05T00:23:31.054Z,99655.69
2022-08-05T00:24:30.686Z,99655.69
2022-08-05T00:25:18.179Z,99659.25
2022-08-05T00:26:05.629Z,99657.72
2022-08-05T00:26:53.339Z,99655.56
2022-08-05T00:27:40.670Z,99652.25
2022-08-05T00:28:29.955Z,99648.56
2022-08-05T00:29:16.880Z,99655.06
2022-08-05T00:30:11.417Z,99655.06
2022-08-05T00:30:58.440Z,99652.94
2022-08-05T00:31:53.610Z,99655.66
2022-08-05T00:32:57.550Z,99651.28
2022-08-05T00:34:55.331Z,99658.19
2022-08-05T00:35:05.161Z,99654.84
2022-08-05T00:36:15.000Z,99654.03
2022-08-05T00:37:11.754Z,99656.25
2022-08-05T00:38:01.422Z,99652.13
2022-08-05T00:38:49.749Z,99651.88
2022-08-05T00:39:37.179Z,99662.56
2022-08-05T00:40:29.466Z,99650.44
2022-08-05T00:41:27.919Z,99658.75
2022-08-05T00:42:39.879Z,99655.44
2022-08-05T00:43:26.943Z,99650.81
2022-08-05T00:44:33.559Z,99652.13
2022-08-05T00:45:28.276Z,99649.38
2022-08-05T00:46:42.769Z,99654.97
2022-08-05T00:47:49.204Z,99644.28
2022-08-05T00:48:51.184Z,99650.56
2022-08-05T00:49:51.290Z,99650.94
2022-08-05T00:50:41.385Z,99647.12
2022-08-05T00:51:51.532Z,99650.56
2022-08-05T00:52:39.211Z,99648.66
2022-08-05T00:54:01.350Z,99650.81
2022-08-05T00:54:33.199Z,99649.63
2022-08-05T00:55:19.989Z,99643.09
2022-08-05T00:56:07.745Z,99648.56
2022-08-05T00:56:54.780Z,99650.69
2022-08-05T00:57:58.158Z,99649.38
2022-08-05T00:58:46.047Z,99652.00
2022-08-05T00:59:44.281Z,99641.81
2022-08-05T01:00:32.225Z,99647.97
2022-08-05T01:01:41.980Z,99648.81
2022-08-05T01:02:27.350Z,99641.66
2022-08-05T01:03:22.558Z,99644.88
2022-08-05T01:04:13.593Z,99640.47
2022-08-05T01:05:01.223Z,99641.56
2022-08-05T01:05:54.847Z,99639.88
2022-08-05T01:06:41.859Z,99640.97
2022-08-05T01:07:33.523Z,99641.78
2022-08-05T01:08:30.292Z,99637.38
2022-08-05T01:09:30.346Z,99643.06
2022-08-05T01:10:19.319Z,99636.19
2022-08-05T01:11:33.350Z,99636.78
2022-08-05T01:12:21.821Z,99637.38
2022-08-05T01:13:19.504Z,99637.84
2022-08-05T01:14:45.940Z,99637.84
2022-08-05T01:15:36.834Z,99631.66
2022-08-05T01:16:54.981Z,99634.16
2022-08-05T01:17:53.727Z,99635.00
2022-08-05T01:18:48.186Z,99633.31
2022-08-05T01:20:03.048Z,99636.53
2022-08-05T01:20:52.458Z,99636.75
2022-08-05T01:22:05.400Z,99637.72
2022-08-05T01:22:57.201Z,99637.94
2022-08-05T01:23:53.293Z,99636.03
2022-08-05T01:25:04.646Z,99632.03
2022-08-05T01:25:57.079Z,99637.16
2022-08-05T01:27:22.123Z,99628.94
2022-08-05T01:28:27.490Z,99637.16
2022-08-05T01:29:23.083Z,99625.84
2022-08-05T01:30:12.402Z,99631.78
2022-08-05T01:31:27.060Z,99630.72
2022-08-05T01:32:18.557Z,99626.91
2022-08-05T01:33:08.706Z,99635.34
2022-08-05T01:34:16.018Z,99628.22
2022-08-05T01:35:51.240Z,99634.78
2022-08-05T01:36:28.088Z,99629.16
2022-08-05T01:37:27.629Z,99631.06
2022-08-05T01:38:27.412Z,99631.91
2022-08-05T01:39:36.178Z,99630.97
2022-08-05T01:40:28.989Z,99630.09
2022-08-05T01:41:18.175Z,99623.00
2022-08-05T01:42:11.462Z,99624.06
2022-08-05T01:43:03.591Z,99628.09
2022-08-05T01:43:51.409Z,99627.87
2022-08-05T01:44:39.459Z,99633.56
2022-08-05T01:45:28.391Z,99630.59
2022-08-05T01:46:42.044Z,99624.06
2022-08-05T01:47:39.476Z,99622.19
2022-08-05T01:48:30.548Z,99623.00
2022-08-05T01:49:23.709Z,99625.50
2022-08-05T01:50:15.983Z,99628.47
2022-08-05T01:51:12.509Z,99627.87
2022-08-05T01:52:01.666Z,99631.41
2022-08-05T01:53:08.048Z,99630.38
2022-08-05T01:53:58.111Z,99627.97
2022-08-05T01:54:49.539Z,99619.31
2022-08-05T01:55:41.359Z,99617.91
2022-08-05T01:58:09.367Z,99628.81
2022-08-05T01:58:29.306Z,99620.03
2022-08-05T01:58:50.277Z,99632.97
2022-08-05T01:59:39.290Z,99627.97
2022-08-05T02:00:30.337Z,99621.59
2022-08-05T02:01:25.309Z,99629.41
2022-08-05T02:02:15.955Z,99626.66
2022-08-05T02:03:50.124Z,99635.69
2022-08-05T02:04:38.459Z,99625.59
2022-08-05T02:05:34.294Z,99621.44
2022-08-05T02:06:37.892Z,99621.69
2022-08-05T02:07:25.569Z,99625.09
2022-08-05T02:08:28.961Z,99623.91
2022-08-05T02:09:20.448Z,99623.91
2022-08-05T02:10:08.101Z,99621.44
2022-08-05T02:11:03.590Z,99618.72
2022-08-05T02:11:57.299Z,99625.47
2022-08-05T02:12:51.165Z,99616.44
2022-08-05T02:13:59.090Z,99619.75
2022-08-05T02:14:53.498Z,99620.84
2022-08-05T02:15:45.929Z,99625.22
2022-08-05T02:16:37.599Z,99619.16
2022-08-05T02:18:32.053Z,99617.97
2022-08-05T02:18:50.979Z,99619.28
2022-08-05T02:19:42.706Z,99619.50
2022-08-05T02:20:40.824Z,99615.94
2022-08-05T02:21:42.891Z,99619.50
2022-08-05T02:22:38.638Z,99619.75
2022-08-05T02:23:30.500Z,99624.12
2022-08-05T02:24:23.728Z,99618.09
2022-08-05T02:25:17.969Z,99615.59
2022-08-05T02:26:06.860Z,99622.13
2022-08-05T02:27:00.348Z,99614.75
2022-08-05T02:28:00.120Z,99615.59
2022-08-05T02:28:48.150Z,99612.63
2022-08-05T02:29:58.897Z,99625.22
2022-08-05T02:30:54.177Z,99619.75
2022-08-05T02:31:41.829Z,99619.63
2022-08-05T02:32:31.960Z,99614.63
2022-08-05T02:33:35.727Z,99615.84
2022-08-05T02:34:28.036Z,99616.53
2022-08-05T02:35:19.122Z,99609.03
2022-08-05T02:36:17.092Z,99617.91
2022-08-05T02:37:06.208Z,99620.66
2022-08-05T02:37:55.799Z,99612.94
2022-08-05T02:38:52.968Z,99609.84
2022-08-05T02:39:41.497Z,99608.41
2022-08-05T02:40:34.619Z,99607.59
2022-08-05T02:41:23.187Z,99607.59
2022-08-05T02:42:11.178Z,99614.47
2022-08-05T02:43:15.337Z,99602.13
2022-08-05T02:44:06.790Z,99607.13
2022-08-05T02:45:00.639Z,99608.41
2022-08-05T02:45:51.491Z,99603.19
2022-08-05T02:46:44.048Z,99601.88
2022-08-05T02:48:06.555Z,99605.69
2022-08-05T02:48:52.779Z,99604.63
2022-08-05T02:49:44.698Z,99600.59
2022-08-05T02:50:32.210Z,99602.97
2022-08-05T02:51:19.550Z,99607.59
2022-08-05T02:52:29.475Z,99606.41
2022-08-05T02:53:20.918Z,99600.72
2022-08-05T02:54:07.951Z,99599.25
2022-08-05T02:54:55.430Z,99598.66
2022-08-05T02:55:54.454Z,99602.25
2022-08-05T02:56:47.559Z,99600.56
2022-08-05T02:58:11.718Z,99599.75
2022-08-05T02:58:43.918Z,99601.16
2022-08-05T02:59:30.894Z,99594.78
2022-08-05T03:00:35.579Z,99604.50
2022-08-05T03:01:27.074Z,99596.44
2022-08-05T03:02:15.479Z,99594.41
2022-08-05T03:03:02.482Z,99596.53
2022-08-05T03:04:03.277Z,99600.94
2022-08-05T03:04:53.320Z,99597.13
2022-08-05T03:06:54.658Z,99592.75
2022-08-05T03:06:54.728Z,99596.78
2022-08-05T03:08:00.316Z,99589.87
2022-08-05T03:08:53.659Z,99598.31
2022-08-05T03:09:51.636Z,99597.00
2022-08-05T03:10:39.125Z,99595.94
2022-08-05T03:11:54.739Z,99592.97
2022-08-05T03:12:36.720Z,99599.03
2022-08-05T03:13:27.559Z,99601.16
2022-08-05T03:14:30.367Z,99600.34
2022-08-05T03:15:17.488Z,99592.16
2022-08-05T03:16:04.282Z,99601.31
2022-08-05T03:16:53.416Z,99603.56
2022-08-05T03:17:42.047Z,99599.31
2022-08-05T03:18:31.688Z,99597.63
2022-08-05T03:19:34.413Z,99597.03
2022-08-05T03:20:24.567Z,99600.00
2022-08-05T03:21:11.740Z,99599.16
2022-08-05T03:21:58.560Z,99600.84
2022-08-05T03:22:49.809Z,99607.34
2022-08-05T03:23:39.109Z,99600.84
2022-08-05T03:24:30.121Z,99601.66
2022-08-05T03:25:33.617Z,99598.81
2022-08-05T03:26:32.307Z,99599.03
2022-08-05T03:27:20.943Z,99599.84
2022-08-05T03:28:08.854Z,99596.31
2022-08-05T03:28:55.879Z,99595.00
2022-08-05T03:29:45.087Z,99596.69
2022-08-05T03:30:49.702Z,99597.50
2022-08-05T03:31:57.294Z,99602.25
2022-08-05T03:32:45.487Z,99605.59
2022-08-05T03:33:51.096Z,99601.66
2022-08-05T03:34:39.970Z,99602.47
2022-08-05T03:35:28.178Z,99602.25
2022-08-05T03:36:15.669Z,99598.09
2022-08-05T03:37:03.229Z,99599.75
2022-08-05T03:37:50.068Z,99603.78
2022-08-05T03:38:44.419Z,99597.72
2022-08-05T03:39:59.358Z,99604.87
2022-08-05T03:40:49.248Z,99597.50
2022-08-05T03:41:45.153Z,99593.97
2022-08-05T03:42:41.796Z,99601.66
2022-08-05T03:44:08.368Z,99606.88
2022-08-05T03:44:46.011Z,99604.53
2022-08-05T03:45:57.234Z,99603.84
2022-08-05T03:46:41.249Z,99603.13
2022-08-05T03:47:30.590Z,99601.44
2022-08-05T03:48:22.782Z,99593.50
2022-08-05T03:49:09.611Z,99597.87
2022-08-05T03:49:57.640Z,99592.44
2022-08-05T03:50:54.061Z,99601.09
2022-08-05T03:52:50.307Z,99595.88
2022-08-05T03:55:49.977Z,99600.06
2022-08-05T03:55:51.093Z,99595.66
2022-08-05T03:56:09.850Z,99603.84
2022-08-05T03:56:46.477Z,99601.59
2022-08-05T03:57:42.544Z,99598.88
2022-08-05T03:58:32.090Z,99606.00
2022-08-05T03:59:47.120Z,99604.31
2022-08-05T04:00:34.390Z,99600.53
2022-08-05T04:01:22.552Z,99609.66
2022-08-05T04:02:14.864Z,99609.91
2022-08-05T04:03:06.337Z,99606.13
2022-08-05T04:03:56.960Z,99611.91
2022-08-05T04:05:01.880Z,99609.56
2022-08-05T04:05:49.150Z,99611.91
2022-08-05T04:06:36.159Z,99608.12
2022-08-05T04:07:24.933Z,99610.75
2022-08-05T04:08:14.634Z,99607.69
2022-08-05T04:09:20.454Z,99609.47
2022-08-05T04:10:13.560Z,99607.56
2022-08-05T04:11:06.139Z,99609.22
2022-08-05T04:11:52.920Z,99612.31
2022-08-05T04:13:49.322Z,99610.16
2022-08-05T04:14:33.558Z,99608.88
2022-08-05T04:15:20.502Z,99612.69
2022-08-05T04:16:14.328Z,99616.12
2022-08-05T04:17:02.866Z,99614.09
2022-08-05T04:17:56.624Z,99612.78
2022-08-05T04:18:54.198Z,99617.78
2022-08-05T04:19:45.958Z,99609.34
2022-08-05T04:20:41.506Z,99614.47
2022-08-05T04:22:05.265Z,99613.66
2022-08-05T04:22:35.812Z,99608.88
2022-08-05T04:23:57.389Z,99614.44
2022-08-05T04:24:34.339Z,99614.28
2022-08-05T04:25:38.488Z,99615.78
2022-08-05T04:26:32.471Z,99620.09
2022-08-05T04:27:19.420Z,99608.06
2022-08-05T04:28:20.628Z,99601.50
2022-08-05T04:29:18.589Z,99608.56
2022-08-05T04:30:07.981Z,99605.75
2022-08-05T04:30:55.646Z,99609.25
2022-08-05T04:31:43.011Z,99606.00
2022-08-05T04:32:31.014Z,99609.41
2022-08-05T04:33:20.539Z,99609.41
2022-08-05T04:34:33.775Z,99612.81
2022-08-05T04:35:22.020Z,99614.22
2022-08-05T04:36:16.596Z,99610.88
2022-08-05T04:37:17.431Z,99618.28
2022-08-05T04:38:06.850Z,99613.63
2022-08-05T04:38:55.276Z,99616.47
2022-08-05T04:39:43.955Z,99610.66
2022-08-05T04:40:44.472Z,99609.50
2022-08-05T04:41:38.657Z,99607.31
2022-08-05T04:42:25.739Z,99612.19
2022-08-05T04:43:16.517Z,99614.03
2022-08-05T04:44:09.605Z,99609.97
2022-08-05T04:44:56.659Z,99614.72
2022-08-05T04:45:48.224Z,99602.78
2022-08-05T04:46:35.908Z,99608.53
2022-08-05T04:47:22.939Z,99612.41
2022-08-05T04:48:13.303Z,99609.56
2022-08-05T04:49:14.589Z,99609.00
2022-08-05T04:50:11.089Z,99616.66
2022-08-05T04:51:02.593Z,99602.59
2022-08-05T04:51:50.687Z,99609.09
2022-08-05T04:52:47.344Z,99605.28
2022-08-05T04:53:38.926Z,99612.75
2022-08-05T04:54:28.789Z,99608.09
2022-08-05T04:55:15.572Z,99606.16
2022-08-05T04:56:14.812Z,99603.72
2022-08-05T04:57:10.239Z,99607.41
2022-08-05T04:57:57.087Z,99603.97
2022-08-05T04:58:43.889Z,99599.63
2022-08-05T04:59:39.243Z,99596.72
2022-08-05T05:00:27.648Z,99596.91
2022-08-05T05:01:33.672Z,99594.34
2022-08-05T05:02:36.871Z,99585.78
2022-08-05T05:03:28.427Z,99596.34
2022-08-05T05:04:28.917Z,99593.22
2022-08-05T05:05:16.663Z,99597.44
2022-08-05T05:06:39.567Z,99600.50
2022-08-05T05:07:29.271Z,99596.03
2022-08-05T05:08:29.978Z,99588.22
2022-08-05T05:09:18.401Z,99587.00
2022-08-05T05:10:06.704Z,99589.87
2022-08-05T05:10:56.221Z,99598.00
2022-08-05T05:11:54.481Z,99592.47
2022-08-05T05:12:43.619Z,99590.06
2022-08-05T05:13:32.347Z,99591.16
2022-08-05T05:14:32.001Z,99593.34
2022-08-05T05:15:57.291Z,99584.91
2022-08-05T05:16:30.383Z,99581.41
2022-08-05T05:17:22.819Z,99587.59
2022-08-05T05:18:15.060Z,99589.22
2022-08-05T05:19:19.393Z,99590.72
2022-08-05T05:20:11.733Z,99588.63
2022-08-05T05:20:58.756Z,99583.50
2022-08-05T05:21:46.426Z,99595.31
2022-08-05T05:22:33.622Z,99581.94
2022-08-05T05:23:20.469Z,99587.75
2022-08-05T05:24:09.208Z,99588.47
2022-08-05T05:24:59.467Z,99586.97
2022-08-05T05:25:46.448Z,99588.16
2022-08-05T05:26:34.680Z,99590.37
2022-08-05T05:27:22.599Z,99588.94
2022-08-05T05:28:11.149Z,99588.69
2022-08-05T05:28:57.864Z,99585.00
2022-08-05T05:30:03.843Z,99597.97
2022-08-05T05:30:51.800Z,99585.91
2022-08-05T05:32:24.509Z,99587.00
2022-08-05T05:33:17.074Z,99587.41
2022-08-05T05:34:03.969Z,99592.94
2022-08-05T05:34:52.410Z,99583.28
2022-08-05T05:35:42.399Z,99576.16
2022-08-05T05:36:30.208Z,99588.31
2022-08-05T05:37:17.136Z,99583.34
2022-08-05T05:38:05.664Z,99586.53
2022-08-05T05:38:57.413Z,99584.38
2022-08-05T05:39:44.528Z,99578.44
2022-08-05T05:40:32.306Z,99585.72
2022-08-05T05:41:20.139Z,99583.84
2022-08-05T05:42:07.298Z,99584.06
2022-08-05T05:42:54.918Z,99585.97
2022-08-05T05:43:58.563Z,99592.03
2022-08-05T05:44:47.258Z,99585.69
2022-08-05T05:45:33.999Z,99588.13
2022-08-05T05:46:20.831Z,99590.56
2022-08-05T05:47:13.229Z,99589.75
2022-08-05T05:48:08.975Z,99590.88
2022-08-05T05:48:55.820Z,99591.72
2022-08-05T05:49:42.679Z,99589.22
2022-08-05T05:50:29.459Z,99584.50
2022-08-05T05:51:23.559Z,99585.03
2022-08-05T05:52:25.513Z,99590.25
2022-08-05T05:53:20.811Z,99589.09
2022-08-05T05:54:08.648Z,99589.63
2022-08-05T05:55:07.465Z,99587.81
2022-08-05T05:56:03.321Z,99586.91
2022-08-05T05:56:50.188Z,99584.66
2022-08-05T05:57:52.188Z,99583.22
2022-08-05T05:58:40.326Z,99584.47
2022-08-05T05:59:28.619Z,99582.63
2022-08-05T06:00:20.068Z,99583.22
2022-08-05T06:01:12.569Z,99585.75
2022-08-05T06:02:00.285Z,99580.41
2022-08-05T06:02:47.908Z,99577.84
2022-08-05T06:03:53.864Z,99582.19
2022-08-05T06:04:41.923Z,99579.72
2022-08-05T06:05:29.189Z,99584.31
2022-08-05T06:06:18.689Z,99581.69
2022-08-05T06:07:09.018Z,99581.94
2022-08-05T06:08:01.996Z,99574.87
2022-08-05T06:08:49.299Z,99576.19
2022-08-05T06:10:00.053Z,99581.59
2022-08-05T06:10:52.505Z,99575.78
2022-08-05T06:11:39.748Z,99582.13
2022-08-05T06:12:27.136Z,99577.44
2022-08-05T06:13:14.148Z,99581.72
2022-08-05T06:14:01.049Z,99584.38
2022-08-05T06:14:49.090Z,99579.88
2022-08-05T06:16:30.436Z,99582.06
2022-08-05T06:16:45.534Z,99587.31
2022-08-05T06:17:33.857Z,99583.09
2022-08-05T06:18:40.468Z,99576.41
2022-08-05T06:19:34.658Z,99588.31
2022-08-05T06:20:22.592Z,99588.66
2022-08-05T06:21:18.645Z,99581.34
2022-08-05T06:22:07.132Z,99583.22
2022-08-05T06:22:56.347Z,99579.50
2022-08-05T06:23:45.118Z,99584.25
2022-08-05T06:24:32.549Z,99582.81
2022-08-05T06:25:25.063Z,99586.59
2022-08-05T06:26:26.119Z,99595.66
2022-08-05T06:28:10.651Z,99583.31
2022-08-05T06:28:28.491Z,99594.03
2022-08-05T06:29:42.829Z,99587.75
2022-08-05T06:30:22.308Z,99600.41
2022-08-05T06:31:17.899Z,99593.41
2022-08-05T06:32:05.428Z,99586.53
2022-08-05T06:33:10.689Z,99597.09
2022-08-05T06:34:06.878Z,99591.34
2022-08-05T06:34:57.204Z,99596.53
2022-08-05T06:36:07.777Z,99607.25
2022-08-05T06:36:57.618Z,99586.91
2022-08-05T06:37:57.376Z,99588.72
2022-08-05T06:38:46.947Z,99594.56
2022-08-05T06:39:34.271Z,99599.31
2022-08-05T06:40:21.616Z,99602.13
2022-08-05T06:41:14.870Z,99596.31
2022-08-05T06:42:04.034Z,99596.59
2022-08-05T06:42:52.517Z,99600.09
2022-08-05T06:43:59.047Z,99605.25
2022-08-05T06:44:46.259Z,99603.25
2022-08-05T06:45:44.548Z,99602.47
2022-08-05T06:46:42.978Z,99599.59
2022-08-05T06:48:36.411Z,99591.91
2022-08-05T06:48:56.349Z,99601.69
2022-08-05T06:50:00.034Z,99595.56
2022-08-05T06:50:49.937Z,99595.06
2022-08-05T06:51:36.892Z,99594.06
2022-08-05T06:52:37.733Z,99588.97
2022-08-05T06:53:28.426Z,99595.16
2022-08-05T06:54:18.965Z,99594.19
2022-08-05T06:55:07.243Z,99593.19
2022-08-05T06:55:54.029Z,99595.63
2022-08-05T06:56:40.969Z,99594.47
2022-08-05T06:57:57.294Z,99591.19
2022-08-05T06:58:48.480Z,99596.59
2022-08-05T06:59:38.478Z,99589.22
2022-08-05T07:00:26.089Z,99597.56
2022-08-05T07:01:16.776Z,99589.37
2022-08-05T07:02:08.338Z,99590.84
2022-08-05T07:02:55.378Z,99596.09
2022-08-05T07:03:42.157Z,99589.87
2022-08-05T07:04:28.881Z,99585.62
2022-08-05T07:05:18.877Z,99593.34
2022-08-05T07:06:14.332Z,99581.87
2022-08-05T07:07:02.218Z,99590.88
2022-08-05T07:07:49.207Z,99591.56
2022-08-05T07:08:35.989Z,99591.25
2022-08-05T07:09:24.974Z,99592.25
2022-08-05T07:10:14.863Z,99593.22
2022-08-05T07:11:04.758Z,99592.59
2022-08-05T07:11:52.367Z,99593.91
2022-08-05T07:12:57.682Z,99591.28
2022-08-05T07:14:03.328Z,99588.50
2022-08-05T07:15:09.699Z,99592.91
2022-08-05T07:17:57.311Z,99591.41
2022-08-05T07:18:00.459Z,99593.38
2022-08-05T07:18:30.338Z,99596.34
2022-08-05T07:19:44.249Z,99592.09
2022-08-05T07:20:38.743Z,99591.09
2022-08-05T07:21:26.145Z,99591.44
2022-08-05T07:22:12.909Z,99597.50
2022-08-05T07:23:02.699Z,99598.03
2022-08-05T07:23:52.375Z,99591.34
2022-08-05T07:24:43.958Z,99591.66
2022-08-05T07:25:55.464Z,99596.87
2022-08-05T07:26:44.761Z,99586.84
2022-08-05T07:27:56.389Z,99593.91
2022-08-05T07:28:39.983Z,99589.97
2022-08-05T07:30:22.160Z,99587.03
2022-08-05T07:30:38.370Z,99587.72
2022-08-05T07:31:54.077Z,99585.59
2022-08-05T07:32:37.788Z,99583.97
2022-08-05T07:33:36.577Z,99587.06
2022-08-05T07:34:28.571Z,99593.81
2022-08-05T07:36:02.655Z,99593.16
2022-08-05T07:36:22.384Z,99594.31
2022-08-05T07:37:11.710Z,99589.87
2022-08-05T07:37:58.628Z,99585.12
2022-08-05T07:38:46.269Z,99590.53
2022-08-05T07:40:04.181Z,99590.84
2022-08-05T07:40:44.605Z,99589.06
2022-08-05T07:42:08.710Z,99587.41
2022-08-05T07:42:38.182Z,99588.91
2022-08-05T07:43:25.059Z,99593.00
2022-08-05T07:44:19.443Z,99575.94
2022-08-05T07:45:09.268Z,99578.56
2022-08-05T07:45:57.098Z,99574.78
2022-08-05T07:46:48.598Z,99581.34
2022-08-05T07:47:42.499Z,99582.00
2022-08-05T07:49:02.984Z,99584.44
2022-08-05T07:49:43.630Z,99576.56
2022-08-05T07:50:41.260Z,99578.19
2022-08-05T07:51:36.714Z,99586.25
2022-08-05T07:52:27.397Z,99580.31
2022-08-05T07:53:14.869Z,99584.75
2022-08-05T07:54:02.014Z,99580.78
2022-08-05T07:54:49.366Z,99579.34
2022-08-05T07:56:05.869Z,99572.91
2022-08-05T07:57:13.575Z,99573.87
2022-08-05T07:58:02.379Z,99575.53
2022-08-05T07:58:57.676Z,99571.75
2022-08-05T07:59:46.839Z,99579.13
2022-08-05T08:00:35.732Z,99581.72
2022-08-05T08:01:25.411Z,99573.84
2022-08-05T08:02:17.927Z,99580.41
2022-08-05T08:03:14.938Z,99571.50
2022-08-05T08:04:03.179Z,99583.19
2022-08-05T08:04:50.978Z,99579.28
2022-08-05T08:05:49.845Z,99587.50
2022-08-05T08:06:36.970Z,99580.09
2022-08-05T08:07:24.059Z,99588.63
2022-08-05T08:08:12.195Z,99584.19
2022-08-05T08:08:59.391Z,99575.16
2022-08-05T08:09:48.131Z,99574.78
2022-08-05T08:10:34.909Z,99576.44
2022-08-05T08:11:27.574Z,99582.50
2022-08-05T08:12:48.414Z,99580.69
2022-08-05T08:13:42.998Z,99585.25
2022-08-05T08:14:36.359Z,99583.13
2022-08-05T08:15:37.092Z,99584.09
2022-08-05T08:16:35.251Z,99583.59
2022-08-05T08:17:36.929Z,99587.31
2022-08-05T08:18:24.358Z,99579.44
2022-08-05T08:20:10.080Z,99585.50
2022-08-05T08:20:43.336Z,99583.41
2022-08-05T08:21:25.390Z,99588.44
2022-08-05T08:22:16.017Z,99583.19
2022-08-05T08:23:03.520Z,99585.88
2022-08-05T08:24:02.840Z,99574.19
2022-08-05T08:24:52.152Z,99578.62
2022-08-05T08:26:00.579Z,99582.72
2022-08-05T08:26:46.310Z,99581.72
2022-08-05T08:27:40.159Z,99573.47
2022-08-05T08:28:36.335Z,99583.13
2022-08-05T08:30:03.295Z,99583.47
2022-08-05T08:30:40.854Z,99585.25
2022-08-05T08:31:34.299Z,99584.25
2022-08-05T08:32:27.977Z,99583.91
2022-08-05T08:33:15.128Z,99585.69
2022-08-05T08:34:01.939Z,99593.38
2022-08-05T08:34:49.005Z,99588.63
2022-08-05T08:35:41.275Z,99582.06
2022-08-05T08:36:38.708Z,99582.25
2022-08-05T08:37:30.001Z,99580.63
2022-08-05T08:38:35.411Z,99583.75
2022-08-05T08:39:24.882Z,99580.63
2022-08-05T08:40:13.149Z,99580.63
2022-08-05T08:41:00.851Z,99575.66
2022-08-05T08:41:51.055Z,99578.25
2022-08-05T08:42:51.040Z,99575.59
2022-08-05T08:45:19.799Z,99584.31
2022-08-05T08:45:20.620Z,99578.41
2022-08-05T08:45:56.251Z,99585.22
2022-08-05T08:46:44.318Z,99580.59
2022-08-05T08:48:06.028Z,99580.38
2022-08-05T08:49:04.149Z,99584.34
2022-08-05T08:50:13.178Z,99578.06
2022-08-05T08:51:22.545Z,99573.75
2022-08-05T08:52:13.706Z,99579.50
2022-08-05T08:53:07.941Z,99571.59
2022-08-05T08:53:55.318Z,99575.72
2022-08-05T08:54:43.429Z,99575.72
2022-08-05T08:56:02.703Z,99571.38
2022-08-05T08:56:47.669Z,99572.53
2022-08-05T08:57:42.023Z,99573.50
2022-08-05T08:58:43.636Z,99567.91
2022-08-05T08:59:36.430Z,99581.81
2022-08-05T09:00:23.369Z,99565.50
2022-08-05T09:01:17.238Z,99567.69
2022-08-05T09:02:08.475Z,99564.53
2022-08-05T09:02:56.768Z,99571.09
2022-08-05T09:03:53.068Z,99572.88
2022-08-05T09:04:58.467Z,99570.72
2022-08-05T09:06:09.103Z,99566.63
2022-08-05T09:06:56.320Z,99567.44
2022-08-05T09:07:57.779Z,99561.44
2022-08-05T09:08:44.990Z,99570.31
2022-08-05T09:09:35.414Z,99568.78
2022-08-05T09:10:26.998Z,99562.97
2022-08-05T09:11:15.314Z,99553.91
2022-08-05T09:12:19.875Z,99563.59
2022-08-05T09:13:07.439Z,99563.34
2022-08-05T09:14:09.166Z,99560.13
2022-08-05T09:15:06.390Z,99558.50
2022-08-05T09:15:53.449Z,99564.22
2022-08-05T09:16:41.869Z,99567.41
2022-08-05T09:17:42.899Z,99563.66
2022-08-05T09:18:32.540Z,99558.06
2022-08-05T09:19:19.307Z,99551.37
2022-08-05T09:20:36.187Z,99553.59
2022-08-05T09:22:23.170Z,99544.22
2022-08-05T09:23:05.023Z,99555.44
2022-08-05T09:24:10.139Z,99552.06
2022-08-05T09:24:58.819Z,99550.22
2022-08-05T09:26:00.969Z,99548.59
2022-08-05T09:26:52.261Z,99552.53
2022-08-05T09:28:03.800Z,99544.28
2022-08-05T09:28:48.319Z,99554.13
2022-08-05T09:29:47.574Z,99545.03
2022-08-05T09:30:35.158Z,99549.81
2022-08-05T09:32:40.268Z,99547.94
2022-08-05T09:32:41.209Z,99546.66
2022-08-05T09:33:35.144Z,99550.31
2022-08-05T09:34:22.622Z,99552.28
2022-08-05T09:35:26.784Z,99541.31
2022-08-05T09:36:16.629Z,99540.97
2022-08-05T09:37:17.725Z,99540.72
2022-08-05T09:38:27.618Z,99547.97
2022-08-05T09:39:21.896Z,99539.00
2022-08-05T09:40:10.171Z,99543.66
2022-08-05T09:41:10.118Z,99530.84
2022-08-05T09:42:04.578Z,99538.50
2022-08-05T09:42:51.331Z,99533.03
2022-08-05T09:43:42.207Z,99540.72
2022-08-05T09:44:38.906Z,99538.88
2022-08-05T09:46:06.960Z,99541.00
2022-08-05T09:46:51.951Z,99536.09
2022-08-05T09:47:55.527Z,99538.78
2022-08-05T09:48:43.499Z,99538.69
2022-08-05T09:50:01.093Z,99546.88
2022-08-05T09:50:50.870Z,99544.63
2022-08-05T09:51:39.995Z,99540.34
2022-08-05T09:52:31.485Z,99536.69
2022-08-05T09:53:26.060Z,99528.50
2022-08-05T09:54:32.273Z,99538.00
2022-08-05T09:55:56.674Z,99535.28
2022-08-05T09:56:27.500Z,99530.06
2022-08-05T09:57:39.468Z,99534.22
2022-08-05T09:58:29.133Z,99534.69
2022-08-05T09:59:17.576Z,99536.47
2022-08-05T10:00:08.426Z,99528.41
2022-08-05T10:01:15.072Z,99540.09
2022-08-05T10:02:10.047Z,99534.94
2022-08-05T10:02:58.112Z,99525.81
2022-08-05T10:04:10.272Z,99532.34
2022-08-05T10:05:04.598Z,99534.81
2022-08-05T10:06:15.485Z,99532.72
2022-08-05T10:07:06.139Z,99527.22
2022-08-05T10:08:36.744Z,99530.63
2022-08-05T10:09:16.470Z,99522.34
2022-08-05T10:10:15.936Z,99513.34
2022-08-05T10:11:07.010Z,99521.63
2022-08-05T10:12:18.515Z,99516.94
2022-08-05T10:13:45.817Z,99516.72
2022-08-05T10:14:35.239Z,99523.34
2022-08-05T10:15:35.089Z,99517.66
2022-08-05T10:16:37.678Z,99515.53
2022-08-05T10:17:37.705Z,99509.72
2022-08-05T10:18:27.848Z,99515.19
2022-08-05T10:19:16.399Z,99518.69
2022-08-05T10:20:18.251Z,99516.47
2022-08-05T10:21:08.666Z,99517.75
2022-08-05T10:22:02.260Z,99518.59
2022-08-05T10:22:51.137Z,99517.53
2022-08-05T10:23:59.052Z,99508.50
2022-08-05T10:24:46.426Z,99506.16
2022-08-05T10:25:37.619Z,99508.38
2022-08-05T10:26:32.629Z,99511.66
2022-08-05T10:27:26.247Z,99510.59
2022-08-05T10:28:29.459Z,99507.47
2022-08-05T10:29:23.626Z,99509.19
2022-08-05T10:31:20.052Z,99503.94
2022-08-05T10:32:52.206Z,99500.69
2022-08-05T10:33:01.486Z,99504.50
2022-08-05T10:33:43.392Z,99501.09
2022-08-05T10:34:31.390Z,99504.87
2022-08-05T10:35:18.241Z,99502.91
2022-08-05T10:36:06.231Z,99503.56
2022-08-05T10:36:53.087Z,99507.19
2022-08-05T10:37:44.929Z,99497.94
2022-08-05T10:38:33.988Z,99500.16
2022-08-05T10:40:03.469Z,99502.34
2022-08-05T10:40:45.169Z,99499.63
2022-08-05T10:41:44.827Z,99496.09
2022-08-05T10:42:38.818Z,99496.03
2022-08-05T10:43:48.619Z,99494.72
2022-08-05T10:44:36.112Z,99493.09
2022-08-05T10:45:39.725Z,99488.66
2022-08-05T10:46:50.561Z,99492.75
2022-08-05T10:47:56.157Z,99487.00
2022-08-05T10:49:09.624Z,99484.53